Time;durP1;ratioP1;P1;durP2;ratioP2;P2;SDS_P1;SDS_P2;PMS_P1;PMS_P2;Temp;Humidity;BMP_temperature;BMP_pressure;BME280_temperature;BME280_humidity;BME280_pressure;Samples;Min_cycle;Max_cycle;Signal;HPM_P1;HPM_P2
2022/05/07 00:01:35;;;;;;;33.40;23.20;;;;;;;14.18;62.23;99489.27;105358;1284;97878;-65
2022/05/07 00:04:04;;;;;;;35.60;23.90;;;;;;;14.13;62.21;99489.05;105373;1283;112078;-66
2022/05/07 00:06:34;;;;;;;32.20;22.70;;;;;;;14.11;62.41;99488.30;105342;1284;95235;-67
2022/05/07 00:09:03;;;;;;;33.80;22.90;;;;;;;14.12;62.43;99488.81;105348;1284;107010;-68
2022/05/07 00:11:30;;;;;;;33.40;23.60;;;;;;;14.11;62.32;99488.34;105309;1284;97882;-68
2022/05/07 00:13:58;;;;;;;32.10;22.60;;;;;;;14.10;62.47;99487.70;105402;1284;97852;-69
2022/05/07 00:19:14;;;;;;;33.90;24.90;;;;;;;14.07;62.52;99486.71;105306;1284;97984;-67
2022/05/07 00:21:45;;;;;;;35.50;25.70;;;;;;;14.07;62.51;99489.92;105313;1284;107782;-69
2022/05/07 00:24:13;;;;;;;35.30;25.30;;;;;;;14.07;62.56;99483.52;105254;1284;97747;-67
2022/05/07 00:26:41;;;;;;;39.20;25.70;;;;;;;14.06;62.61;99483.73;105408;1284;97918;-69
2022/05/07 00:29:09;;;;;;;34.20;24.50;;;;;;;14.05;62.58;99481.35;105500;1284;111972;-70
2022/05/07 00:31:38;;;;;;;37.20;26.00;;;;;;;14.03;62.66;99484.33;105343;1284;97874;-69
2022/05/07 00:34:06;;;;;;;37.60;27.40;;;;;;;14.03;62.67;99483.66;105373;1284;108136;-67
2022/05/07 00:36:34;;;;;;;36.40;25.30;;;;;;;14.01;62.59;99484.36;105348;1284;96432;-65
2022/05/07 00:39:04;;;;;;;37.50;25.50;;;;;;;13.96;62.52;99484.19;105434;1284;95188;-68
2022/05/07 00:41:32;;;;;;;37.40;28.00;;;;;;;13.93;62.70;99483.90;105409;1284;112152;-68
2022/05/07 00:44:02;;;;;;;36.10;26.30;;;;;;;13.94;62.90;99483.95;105639;1283;95396;-69
2022/05/07 00:46:33;;;;;;;38.20;27.70;;;;;;;13.95;62.85;99483.01;105283;1284;108436;-68
2022/05/07 00:49:02;;;;;;;37.50;26.90;;;;;;;13.96;62.95;99480.40;105460;1283;97898;-68
2022/05/07 00:51:33;;;;;;;34.70;25.80;;;;;;;13.98;62.91;99476.32;105581;1283;97897;-69
2022/05/07 00:54:07;;;;;;;39.30;27.10;;;;;;;13.97;62.88;99477.18;105387;1284;112103;-68
2022/05/07 00:56:37;;;;;;;38.20;26.70;;;;;;;13.93;62.92;99471.92;105347;1284;96565;-68
2022/05/07 00:59:07;;;;;;;40.30;29.00;;;;;;;13.92;62.91;99473.62;105364;1283;108833;-69
2022/05/07 01:01:35;;;;;;;39.50;27.70;;;;;;;13.92;63.02;99471.65;105196;1283;96385;-67
2022/05/07 01:04:05;;;;;;;35.50;24.00;;;;;;;13.92;63.06;99470.63;105427;1283;97920;-69
2022/05/07 01:06:35;;;;;;;36.70;26.60;;;;;;;13.93;62.99;99466.58;105524;1283;111011;-68
2022/05/07 01:09:07;;;;;;;35.00;24.90;;;;;;;13.93;62.96;99468.57;105495;1283;98948;-69
2022/05/07 01:11:35;;;;;;;35.60;25.80;;;;;;;13.90;63.00;99466.98;105485;1283;108711;-69
2022/05/07 01:14:03;;;;;;;34.10;25.10;;;;;;;13.87;62.91;99470.44;105493;1283;98019;-67
2022/05/07 01:16:33;;;;;;;34.50;24.10;;;;;;;13.86;63.09;99468.10;105493;1283;97772;-69
2022/05/07 01:19:04;;;;;;;34.20;24.90;;;;;;;13.87;63.13;99465.67;105506;1282;112016;-68
2022/05/07 01:21:32;;;;;;;33.10;22.40;;;;;;;13.86;63.11;99465.40;105570;1283;97916;-69
2022/05/07 01:24:01;;;;;;;33.10;24.30;;;;;;;13.82;62.93;99464.40;105377;1284;108238;-68
2022/05/07 01:26:30;;;;;;;35.90;24.40;;;;;;;13.80;63.07;99465.48;105374;1284;97932;-68
2022/05/07 01:29:01;;;;;;;31.10;22.00;;;;;;;13.80;63.14;99466.21;105500;1284;97786;-69
2022/05/07 01:31:30;;;;;;;34.40;22.70;;;;;;;13.81;63.10;99469.66;105456;1284;109900;-67
2022/05/07 01:34:00;;;;;;;35.10;24.20;;;;;;;13.83;63.15;99471.33;105470;1283;96435;-68
2022/05/07 01:36:27;;;;;;;34.10;22.60;;;;;;;13.85;63.22;99465.98;105378;1284;107771;-69
2022/05/07 01:38:57;;;;;;;33.80;22.30;;;;;;;13.88;63.16;99466.13;105407;1284;97926;-68
2022/05/07 01:41:25;;;;;;;34.20;23.60;;;;;;;13.90;63.12;99465.59;105431;1284;97867;-68
2022/05/07 01:43:53;;;;;;;35.60;23.50;;;;;;;13.92;63.29;99462.39;105418;1284;111438;-69
2022/05/07 01:49:12;;;;;;;33.60;23.20;;;;;;;13.94;63.21;99466.35;105522;1283;108796;-67
2022/05/07 01:51:43;;;;;;;40.40;25.50;;;;;;;13.93;63.28;99458.74;105518;1283;96309;-68
2022/05/07 01:54:11;;;;;;;34.10;22.60;;;;;;;13.93;63.23;99456.97;105520;1283;97901;-69
2022/05/07 01:56:40;;;;;;;34.30;22.90;;;;;;;13.91;63.25;99455.67;105522;1283;112069;-70
2022/05/07 01:59:09;;;;;;;36.10;24.50;;;;;;;13.90;63.10;99456.34;105507;1283;98007;-69
2022/05/07 02:01:37;;;;;;;35.10;24.80;;;;;;;13.83;62.97;99456.67;105432;1283;108446;-70
2022/05/07 02:04:08;;;;;;;38.90;25.20;;;;;;;13.72;62.88;99457.94;105406;1283;95209;-69
2022/05/07 02:06:37;;;;;;;35.20;24.60;;;;;;;13.62;63.20;99461.06;105499;1283;98060;-69
2022/05/07 02:09:07;;;;;;;34.20;24.00;;;;;;;13.59;63.25;99459.88;105365;1284;112102;-66
2022/05/07 02:11:36;;;;;;;37.90;24.90;;;;;;;13.59;63.31;99461.98;105460;1283;97786;-69
2022/05/07 02:14:06;;;;;;;33.80;25.00;;;;;;;13.61;63.42;99460.25;105444;1283;107606;-70
2022/05/07 02:16:34;;;;;;;34.00;24.80;;;;;;;13.62;63.31;99458.75;105365;1284;97527;-69
2022/05/07 02:19:05;;;;;;;32.30;23.60;;;;;;;13.64;63.48;99458.55;105434;1282;98230;-68
2022/05/07 02:21:33;;;;;;;34.30;24.00;;;;;;;13.65;63.42;99458.61;105383;1284;112071;-68
2022/05/07 02:24:01;;;;;;;35.20;23.60;;;;;;;13.67;63.40;99456.01;105421;1284;97982;-69
2022/05/07 02:26:29;;;;;;;34.10;24.10;;;;;;;13.65;63.32;99456.30;105584;1283;108207;-68
2022/05/07 02:28:58;;;;;;;33.10;23.70;;;;;;;13.59;63.46;99459.52;105423;1283;97975;-67
2022/05/07 02:31:26;;;;;;;34.90;24.50;;;;;;;13.57;63.47;99459.80;105389;1284;98512;-69
2022/05/07 02:33:56;;;;;;;36.60;25.30;;;;;;;13.58;63.45;99460.33;105485;1283;111285;-68
2022/05/07 02:36:24;;;;;;;34.80;25.00;;;;;;;13.56;63.41;99461.12;105463;1283;97846;-68
2022/05/07 02:38:53;;;;;;;33.20;22.00;;;;;;;13.53;63.42;99461.54;105397;1284;106605;-68
2022/05/07 02:44:07;;;;;;;32.30;22.00;;;;;;;13.46;63.50;99461.22;105522;1283;97999;-69
2022/05/07 02:46:35;;;;;;;32.50;21.90;;;;;;;13.43;63.42;99463.10;105521;1283;112083;-68
2022/05/07 02:49:09;;;;;;;30.70;21.80;;;;;;;13.38;63.51;99465.52;105574;1283;97913;-68
2022/05/07 02:51:40;;;;;;;31.10;21.30;;;;;;;13.35;63.54;99467.88;105663;1283;108288;-70
2022/05/07 02:54:08;;;;;;;31.50;21.90;;;;;;;13.32;63.42;99471.53;105494;1284;97837;-72
2022/05/07 02:56:36;;;;;;;35.00;23.40;;;;;;;13.30;63.49;99470.11;105535;1284;97889;-69
2022/05/07 02:59:05;;;;;;;33.50;23.00;;;;;;;13.27;63.52;99470.61;105413;1284;111987;-68
2022/05/07 03:01:34;;;;;;;33.60;22.20;;;;;;;13.22;63.55;99474.37;105379;1284;95315;-67
2022/05/07 03:04:05;;;;;;;34.60;23.20;;;;;;;13.15;63.57;99478.20;105367;1285;108441;-68
2022/05/07 03:06:37;;;;;;;32.10;21.30;;;;;;;13.10;63.59;99481.38;105371;1283;97982;-67
2022/05/07 03:09:07;;;;;;;32.50;22.00;;;;;;;13.03;63.40;99477.81;105409;1283;98323;-70
2022/05/07 03:11:35;;;;;;;37.80;22.20;;;;;;;12.96;63.60;99476.73;105558;1282;111248;-69
2022/05/07 03:14:08;;;;;;;32.30;23.50;;;;;;;12.95;63.75;99478.97;105458;1284;97895;-68
2022/05/07 03:16:38;;;;;;;34.40;22.00;;;;;;;12.94;63.77;99480.62;105428;1283;109275;-68
2022/05/07 03:19:09;;;;;;;31.60;21.00;;;;;;;12.94;63.73;99481.71;105425;1282;97811;-70
2022/05/07 03:21:38;;;;;;;33.70;22.60;;;;;;;12.91;63.63;99484.44;105401;1282;98645;-70
2022/05/07 03:24:07;;;;;;;32.60;21.90;;;;;;;12.88;63.73;99487.33;105399;1282;111123;-69
2022/05/07 03:26:35;;;;;;;32.20;22.20;;;;;;;12.87;63.73;99486.89;105389;1282;95242;-68
2022/05/07 03:29:05;;;;;;;35.30;21.50;;;;;;;12.84;63.81;99489.39;105567;1283;108356;-70
2022/05/07 03:31:33;;;;;;;35.60;22.50;;;;;;;12.84;63.82;99491.75;105611;1283;97922;-67
2022/05/07 03:34:03;;;;;;;30.40;20.50;;;;;;;12.84;63.81;99493.88;105455;1284;97944;-68
2022/05/07 03:36:33;;;;;;;31.60;22.60;;;;;;;12.82;63.68;99489.55;105547;1283;111342;-66
2022/05/07 03:39:02;;;;;;;35.00;21.80;;;;;;;12.80;63.78;99494.52;105586;1283;98076;-68
2022/05/07 03:41:31;;;;;;;34.90;21.00;;;;;;;12.79;63.78;99496.69;105561;1283;108385;-68
2022/05/07 03:44:00;;;;;;;31.50;21.70;;;;;;;12.78;63.88;99500.55;104858;1284;982226;-67
2022/05/07 03:46:29;;;;;;;31.30;20.60;;;;;;;12.78;63.83;99499.26;105577;1283;97986;-69
2022/05/07 03:49:02;;;;;;;34.00;23.40;;;;;;;12.78;63.89;99497.46;105680;1283;112054;-68
2022/05/07 03:53:29;;;;;;;35.00;22.30;;;;;;;12.79;64.06;99501.52;105594;1282;98015;-70
2022/05/07 03:54:19;;;;;;;35.50;22.20;;;;;;;12.82;64.11;99501.33;105652;1283;109449;-70
2022/05/07 03:56:47;;;;;;;38.60;23.40;;;;;;;12.84;64.11;99504.77;105659;1283;98652;-69
2022/05/07 03:59:16;;;;;;;36.20;23.90;;;;;;;12.86;64.07;99507.60;105699;1282;97970;-67
2022/05/07 04:01:44;;;;;;;32.50;22.10;;;;;;;12.88;64.12;99509.05;105662;1283;112056;-72
2022/05/07 04:04:14;;;;;;;35.50;24.70;;;;;;;12.91;64.09;99506.98;105548;1283;97979;-68
2022/05/07 04:06:41;;;;;;;34.40;22.70;;;;;;;12.95;64.23;99512.44;105419;1283;108379;-69
2022/05/07 04:09:09;;;;;;;35.00;23.20;;;;;;;12.99;64.25;99512.70;105523;1284;98106;-68
2022/05/07 04:11:38;;;;;;;33.70;23.60;;;;;;;13.00;64.30;99517.73;105565;1283;97823;-69
2022/05/07 04:14:07;;;;;;;35.50;24.10;;;;;;;13.03;64.23;99518.95;105541;1284;111816;-70
2022/05/07 04:16:35;;;;;;;33.70;23.60;;;;;;;13.06;64.35;99523.17;105539;1284;95219;-70
2022/05/07 04:19:13;;;;;;;32.70;22.90;;;;;;;13.09;64.36;99523.13;105545;1284;108451;-69
2022/05/07 04:21:41;;;;;;;35.30;24.10;;;;;;;13.12;64.32;99527.02;105614;1284;97952;-69
2022/05/07 04:24:10;;;;;;;34.10;23.80;;;;;;;13.14;64.37;99525.42;105409;1284;97771;-70
2022/05/07 04:26:38;;;;;;;35.10;23.60;;;;;;;13.18;64.29;99525.88;105615;1283;111465;-69
2022/05/07 04:29:07;;;;;;;35.20;24.10;;;;;;;13.19;64.33;99528.42;105301;1285;98116;-70
2022/05/07 04:31:37;;;;;;;32.70;22.70;;;;;;;13.21;64.36;99526.90;105202;1283;108291;-68
2022/05/07 04:34:06;;;;;;;34.50;23.40;;;;;;;13.23;64.44;99530.63;105494;1283;97874;-70
2022/05/07 04:36:34;;;;;;;33.50;23.50;;;;;;;13.25;64.48;99531.54;105615;1283;97866;-70
2022/05/07 04:39:04;;;;;;;33.70;24.00;;;;;;;13.27;64.35;99535.66;105595;1283;113150;-69
2022/05/07 04:41:32;;;;;;;34.70;23.10;;;;;;;13.28;64.45;99532.75;105644;1283;97866;-70
2022/05/07 04:44:01;;;;;;;36.00;23.70;;;;;;;13.28;64.46;99535.75;105585;1283;108239;-68
2022/05/07 04:46:29;;;;;;;38.40;24.70;;;;;;;13.29;64.30;99534.60;105515;1284;98692;-67
2022/05/07 04:48:58;;;;;;;38.00;25.30;;;;;;;13.29;64.41;99535.89;105602;1283;95325;-68
2022/05/07 04:51:26;;;;;;;31.50;23.00;;;;;;;13.29;64.51;99529.84;105643;1283;112063;-66
2022/05/07 04:54:11;;;;;;;35.40;23.50;;;;;;;13.31;64.50;99530.17;105678;1283;96371;-66
2022/05/07 04:56:39;;;;;;;36.30;23.70;;;;;;;13.34;64.48;99529.48;105593;1283;108577;-69
2022/05/07 04:59:10;;;;;;;35.00;22.70;;;;;;;13.37;64.43;99528.51;105490;1283;99343;-67
2022/05/07 05:01:38;;;;;;;34.20;22.70;;;;;;;13.39;64.49;99531.17;105510;1283;97997;-67
2022/05/07 05:04:07;;;;;;;33.00;21.80;;;;;;;13.40;64.46;99533.58;105494;1284;112033;-70
2022/05/07 05:06:37;;;;;;;33.90;23.60;;;;;;;13.42;64.52;99536.00;105609;1283;98016;-68
2022/05/07 05:09:07;;;;;;;35.80;23.40;;;;;;;13.45;64.57;99533.11;105317;1284;106722;-69
2022/05/07 05:11:38;;;;;;;34.20;22.90;;;;;;;13.48;64.53;99532.64;105532;1283;97775;-70
2022/05/07 05:17:00;;;;;;;31.50;21.40;;;;;;;13.56;64.62;99529.71;105304;1283;112019;-71
2022/05/07 05:19:29;;;;;;;33.50;21.80;;;;;;;13.62;64.56;99531.79;105583;1283;98111;-69
2022/05/07 05:21:57;;;;;;;33.00;22.00;;;;;;;13.65;64.54;99531.71;105572;1283;108718;-75
2022/05/07 05:24:27;;;;;;;37.70;22.70;;;;;;;13.69;64.47;99529.65;105645;1282;97986;-77
2022/05/07 05:26:54;;;;;;;34.50;22.40;;;;;;;13.74;64.59;99529.63;105582;1283;97885;-76
2022/05/07 05:29:23;;;;;;;34.80;21.90;;;;;;;13.79;64.70;99534.36;105582;1283;112258;-74
2022/05/07 05:31:52;;;;;;;33.10;22.20;;;;;;;13.85;64.64;99538.55;105551;1283;97932;-75
2022/05/07 05:34:22;;;;;;;33.50;21.40;;;;;;;13.90;64.70;99541.56;105367;1284;109563;-76
2022/05/07 05:36:50;;;;;;;34.90;23.50;;;;;;;13.92;64.61;99540.46;105473;1283;97851;-75
2022/05/07 05:39:18;;;;;;;31.80;22.10;;;;;;;13.96;64.62;99546.43;105384;1283;97901;-77
2022/05/07 05:41:45;;;;;;;33.70;22.90;;;;;;;13.99;64.69;99546.53;105240;1284;112139;-75
2022/05/07 05:44:13;;;;;;;33.20;21.90;;;;;;;14.03;64.69;99550.86;105513;1283;97949;-74
2022/05/07 05:46:42;;;;;;;33.10;22.90;;;;;;;14.06;64.67;99552.95;105489;1283;107733;-77
2022/05/07 05:49:09;;;;;;;36.70;23.50;;;;;;;14.08;64.71;99552.96;105510;1283;96401;-75
2022/05/07 05:51:38;;;;;;;35.50;23.00;;;;;;;14.12;64.67;99556.00;105543;1283;98013;-77
2022/05/07 05:54:09;;;;;;;42.30;25.60;;;;;;;14.17;64.64;99556.00;105515;1283;111213;-69
2022/05/07 05:56:37;;;;;;;36.40;24.10;;;;;;;14.20;64.56;99556.14;105418;1284;97774;-68
2022/05/07 05:59:05;;;;;;;34.70;22.00;;;;;;;14.22;64.57;99556.12;105353;1284;108064;-69
2022/05/07 06:01:33;;;;;;;36.50;23.20;;;;;;;14.24;64.57;99556.13;105368;1284;97977;-69
2022/05/07 06:04:03;;;;;;;34.00;22.20;;;;;;;14.27;64.61;99560.17;105463;1284;97987;-72
2022/05/07 06:06:32;;;;;;;35.10;22.50;;;;;;;14.29;64.59;99559.88;105604;1283;111420;-72
2022/05/07 06:09:00;;;;;;;32.70;22.90;;;;;;;14.28;64.41;99563.83;105537;1284;97892;-72
2022/05/07 06:11:28;;;;;;;32.00;22.40;;;;;;;14.27;64.57;99568.55;105479;1284;108377;-69
2022/05/07 06:13:58;;;;;;;36.60;22.20;;;;;;;14.27;64.39;99568.77;105482;1284;97938;-70
2022/05/07 06:16:26;;;;;;;31.60;22.20;;;;;;;14.25;64.37;99569.80;105533;1283;97887;-69
2022/05/07 06:18:54;;;;;;;33.20;23.80;;;;;;;14.24;64.35;99574.29;105358;1281;111412;-69
2022/05/07 06:21:22;;;;;;;32.50;22.50;;;;;;;14.25;64.32;99572.30;105377;1283;97999;-69
2022/05/07 06:23:51;;;;;;;32.60;22.20;;;;;;;14.28;64.45;99572.61;105518;1283;108120;-67
2022/05/07 06:29:08;;;;;;;31.90;22.80;;;;;;;14.34;64.34;99569.66;105577;1283;95286;-67
2022/05/07 06:31:37;;;;;;;33.50;23.00;;;;;;;14.37;64.36;99571.38;105607;1283;112325;-68
2022/05/07 06:34:10;;;;;;;32.50;21.60;;;;;;;14.39;64.39;99571.40;105665;1283;95191;-66
2022/05/07 06:36:39;;;;;;;32.70;21.80;;;;;;;14.42;64.37;99571.83;105539;1283;107567;-68
2022/05/07 06:39:07;;;;;;;32.60;20.70;;;;;;;14.46;64.39;99571.39;105638;1283;98018;-69
2022/05/07 06:41:40;;;;;;;34.10;22.10;;;;;;;14.50;64.39;99572.13;105410;1284;97904;-68
2022/05/07 06:44:08;;;;;;;34.40;21.40;;;;;;;14.54;64.35;99573.70;105624;1283;111159;-69
2022/05/07 06:46:36;;;;;;;36.20;23.10;;;;;;;14.57;64.39;99572.90;105543;1283;97997;-68
2022/05/07 06:49:04;;;;;;;34.20;22.40;;;;;;;14.62;64.39;99573.27;105585;1283;108740;-69
2022/05/07 06:51:33;;;;;;;32.00;21.90;;;;;;;14.67;64.36;99572.54;105549;1283;95376;-69
2022/05/07 06:54:03;;;;;;;33.40;21.40;;;;;;;14.70;64.39;99572.43;105491;1282;97998;-69
2022/05/07 06:56:33;;;;;;;35.00;22.30;;;;;;;14.75;64.54;99578.68;105503;1283;111980;-68
2022/05/07 06:59:03;;;;;;;32.70;21.60;;;;;;;14.79;64.47;99575.89;105592;1282;96475;-69
2022/05/07 07:01:31;;;;;;;33.90;22.20;;;;;;;14.83;64.36;99578.35;105332;1283;108336;-69
2022/05/07 07:04:01;;;;;;;32.50;20.60;;;;;;;14.87;64.28;99581.59;105486;1282;96392;-68
2022/05/07 07:06:30;;;;;;;33.00;21.30;;;;;;;14.92;64.17;99585.70;105696;1283;97982;-68
2022/05/07 07:08:58;;;;;;;32.50;21.70;;;;;;;14.93;64.12;99589.16;105564;1282;111999;-68
2022/05/07 07:11:26;;;;;;;37.60;22.60;;;;;;;14.95;64.14;99589.52;105463;1283;97869;-68
2022/05/07 07:13:53;;;;;;;32.10;22.60;;;;;;;14.98;64.25;99593.00;105482;1283;107809;-69
2022/05/07 07:16:21;;;;;;;32.00;22.50;;;;;;;15.01;64.11;99591.39;105422;1282;97898;-69
2022/05/07 07:18:52;;;;;;;39.60;22.50;;;;;;;15.03;64.12;99593.20;105557;1283;95325;-68
2022/05/07 07:21:19;;;;;;;34.40;22.40;;;;;;;15.07;64.19;99588.73;105645;1283;111930;-67
2022/05/07 07:23:49;;;;;;;31.40;21.90;;;;;;;15.13;64.20;99591.09;105610;1283;97902;-68
2022/05/07 07:26:19;;;;;;;36.30;23.10;;;;;;;15.17;64.13;99590.20;105547;1283;108279;-70
2022/05/07 07:28:48;;;;;;;36.10;23.00;;;;;;;15.21;64.18;99582.75;105573;1284;97917;-69
2022/05/07 07:31:18;;;;;;;34.10;22.70;;;;;;;15.24;64.24;99585.17;105603;1285;99086;-68
2022/05/07 07:33:46;;;;;;;31.00;21.10;;;;;;;15.27;64.06;99588.52;105591;1284;111212;-67
2022/05/07 07:36:14;;;;;;;32.90;21.80;;;;;;;15.30;64.11;99583.63;105329;1283;95310;-67
2022/05/07 07:38:43;;;;;;;30.90;21.20;;;;;;;15.35;64.25;99586.60;105660;1283;108435;-68
2022/05/07 07:41:11;;;;;;;33.20;22.50;;;;;;;15.40;64.23;99584.44;105532;1282;97876;-68
2022/05/07 07:43:40;;;;;;;32.70;22.90;;;;;;;15.45;64.26;99580.36;105614;1283;95333;-69
2022/05/07 07:48:55;;;;;;;33.10;20.80;;;;;;;15.64;64.32;99583.46;105407;1282;98013;-68
2022/05/07 07:51:23;;;;;;;30.80;22.10;;;;;;;15.94;63.99;99583.18;105599;1283;108452;-70
2022/05/07 07:53:51;;;;;;;33.10;22.10;;;;;;;16.07;63.85;99587.30;105496;1283;96412;-68
2022/05/07 07:56:19;;;;;;;31.40;20.90;;;;;;;16.13;63.94;99584.97;105530;1283;97990;-68
2022/05/07 07:58:47;;;;;;;30.60;21.30;;;;;;;16.15;63.89;99587.14;105500;1283;111007;-69
2022/05/07 08:01:17;;;;;;;33.50;21.10;;;;;;;16.19;63.80;99587.34;105548;1283;97924;-69
2022/05/07 08:03:49;;;;;;;30.60;19.60;;;;;;;16.25;63.77;99583.23;105616;1283;108165;-67
2022/05/07 08:06:16;;;;;;;29.30;19.30;;;;;;;16.32;63.87;99586.50;105589;1283;96341;-68
2022/05/07 08:11:41;;;;;;;36.30;23.10;;;;;;;16.42;63.69;99590.66;105551;1283;111967;-67
2022/05/07 08:14:13;;;;;;;32.40;22.30;;;;;;;16.42;63.70;99588.71;105586;1283;97966;-75
2022/05/07 08:16:42;;;;;;;31.60;21.00;;;;;;;16.40;63.77;99591.19;105538;1283;107789;-73
2022/05/07 08:19:12;;;;;;;31.40;21.90;;;;;;;16.42;63.69;99587.23;105529;1283;99171;-73
2022/05/07 08:21:43;;;;;;;29.10;19.50;;;;;;;16.44;63.52;99588.86;105476;1283;98448;-74
2022/05/07 08:24:11;;;;;;;34.50;21.00;;;;;;;16.47;63.49;99589.55;105595;1283;111466;-73
2022/05/07 08:26:39;;;;;;;31.70;19.50;;;;;;;16.51;63.55;99589.71;105452;1283;97790;-74
2022/05/07 08:29:08;;;;;;;28.50;18.20;;;;;;;16.55;63.63;99589.21;105425;1283;108071;-74
2022/05/07 08:31:35;;;;;;;32.80;18.00;;;;;;;16.60;63.35;99587.32;105347;1283;97784;-73
2022/05/07 08:34:03;;;;;;;28.70;17.60;;;;;;;16.65;63.27;99593.15;105338;1283;97878;-68
2022/05/07 08:36:31;;;;;;;32.20;22.30;;;;;;;16.68;62.94;99596.48;105570;1283;111418;-69
2022/05/07 08:38:59;;;;;;;32.80;20.10;;;;;;;16.72;62.95;99597.86;105567;1283;95209;-69
2022/05/07 08:41:29;;;;;;;27.90;16.80;;;;;;;16.82;62.73;99601.09;105495;1283;108331;-68
2022/05/07 08:43:57;;;;;;;28.80;17.70;;;;;;;16.89;62.81;99601.19;105261;1283;98648;-67
2022/05/07 08:46:25;;;;;;;27.30;16.30;;;;;;;17.13;62.65;99602.77;105616;1282;96407;-68
2022/05/07 08:48:56;;;;;;;25.10;15.10;;;;;;;17.56;62.58;99601.50;105572;1283;112073;-68
2022/05/07 08:51:27;;;;;;;24.10;14.50;;;;;;;18.11;62.21;99605.74;105469;1283;97704;-67
2022/05/07 08:53:58;;;;;;;26.10;14.60;;;;;;;18.45;61.97;99604.45;105443;1283;107599;-68
2022/05/07 08:56:26;;;;;;;27.60;16.30;;;;;;;19.30;61.54;99604.65;105488;1283;96572;-73
2022/05/07 08:58:56;;;;;;;27.70;15.60;;;;;;;20.35;61.50;99598.23;105516;1283;95236;-71
2022/05/07 09:01:25;;;;;;;23.40;13.80;;;;;;;21.39;61.60;99595.03;105522;1283;111534;-73
2022/05/07 09:04:08;;;;;;;27.10;13.90;;;;;;;22.34;61.36;99598.17;105521;1282;96602;-69
2022/05/07 09:06:37;;;;;;;21.80;12.00;;;;;;;23.25;60.75;99594.27;105406;1283;108316;-68
2022/05/07 09:09:07;;;;;;;20.50;11.50;;;;;;;23.99;60.40;99590.27;105491;1282;97995;-67
2022/05/07 09:11:42;;;;;;;20.80;10.20;;;;;;;24.64;60.36;99589.39;105465;1283;97899;-67
2022/05/07 09:14:11;;;;;;;22.10;10.40;;;;;;;25.27;59.87;99586.13;105252;1284;112064;-67
2022/05/07 09:16:45;;;;;;;17.60;8.90;;;;;;;25.64;59.88;99591.39;105455;1282;98098;-68
2022/05/07 09:19:28;;;;;;;17.50;8.90;;;;;;;26.11;59.68;99584.62;105380;1283;108300;-67
2022/05/07 09:22:07;;;;;;;20.90;8.50;;;;;;;26.49;59.64;99585.54;105564;1283;97864;-67
2022/05/07 09:24:37;;;;;;;19.50;7.80;;;;;;;26.76;59.12;99580.02;105614;1283;97888;-68
2022/05/07 09:27:05;;;;;;;15.50;7.80;;;;;;;27.12;59.00;99580.66;105556;1284;110845;-68
2022/05/07 09:29:35;;;;;;;17.80;8.20;;;;;;;27.51;58.54;99576.72;105233;1284;98212;-68
2022/05/07 09:32:13;;;;;;;15.70;7.60;;;;;;;27.98;58.36;99572.50;105337;1283;108781;-68
2022/05/07 09:37:39;;;;;;;19.60;8.70;;;;;;;28.53;57.28;99565.36;105337;1284;97935;-68
2022/05/07 09:40:12;;;;;;;21.00;9.50;;;;;;;28.82;56.96;99566.46;105320;1283;111404;-68
2022/05/07 09:42:42;;;;;;;19.30;8.60;;;;;;;29.03;56.53;99565.31;105243;1283;98181;-69
2022/05/07 09:45:11;;;;;;;17.70;8.70;;;;;;;29.07;55.95;99562.52;105432;1283;107616;-68
2022/05/07 09:47:40;;;;;;;17.20;8.60;;;;;;;29.00;55.77;99558.64;105346;1283;97865;-69
2022/05/07 09:50:43;;;;;;;19.60;8.80;;;;;;;29.12;55.60;99557.72;105440;1283;98018;-69
2022/05/07 09:58:51;;;;;;;19.90;9.10;;;;;;;28.77;54.44;99552.47;105436;1283;108402;-68
2022/05/07 10:01:32;;;;;;;17.90;8.60;;;;;;;28.39;53.80;99548.76;105565;1283;97987;-68
2022/05/07 10:04:49;;;;;;;17.90;8.50;;;;;;;27.88;53.11;99544.19;105547;1283;97894;-68
2022/05/07 10:08:08;;;;;;;17.80;8.40;;;;;;;27.31;52.88;99544.42;104840;1286;111493;-68
2022/05/07 10:10:37;;;;;;;19.00;9.20;;;;;;;26.92;52.19;99544.67;104889;1284;97211;-69
2022/05/07 10:13:06;;;;;;;21.20;10.30;;;;;;;26.38;51.80;99542.83;105434;1284;107774;-68
2022/05/07 10:15:35;;;;;;;19.10;10.90;;;;;;;25.97;51.52;99537.98;105629;1283;98007;-68
2022/05/07 10:18:07;;;;;;;16.90;9.00;;;;;;;25.63;51.42;99533.24;105451;1283;96461;-69
2022/05/07 10:20:40;;;;;;;22.30;10.50;;;;;;;25.41;51.23;99531.11;105645;1283;111477;-68
2022/05/07 10:23:10;;;;;;;21.50;10.50;;;;;;;25.17;50.88;99530.09;105550;1283;98134;-68
2022/05/07 10:25:40;;;;;;;19.40;9.40;;;;;;;24.97;50.68;99530.77;105501;1283;107924;-69
2022/05/07 10:28:14;;;;;;;21.30;9.80;;;;;;;24.75;50.38;99528.19;105533;1283;97948;-68
2022/05/07 10:30:46;;;;;;;18.20;8.40;;;;;;;24.48;49.96;99526.86;105580;1283;97966;-68
2022/05/07 10:33:16;;;;;;;17.00;8.70;;;;;;;24.23;49.77;99526.27;105554;1284;112374;-68
2022/05/07 10:35:53;;;;;;;18.70;8.90;;;;;;;24.01;49.66;99526.17;105642;1283;97961;-66
2022/05/07 10:38:28;;;;;;;20.60;9.60;;;;;;;23.85;49.68;99524.82;105551;1283;108060;-68
2022/05/07 10:41:05;;;;;;;18.80;9.10;;;;;;;23.65;49.20;99525.31;105540;1282;98025;-68
2022/05/07 10:43:44;;;;;;;19.80;9.70;;;;;;;23.36;48.70;99520.95;105417;1284;97762;-69
2022/05/07 10:46:20;;;;;;;17.70;9.40;;;;;;;23.06;48.44;99518.98;105580;1283;112404;-70
2022/05/07 10:48:57;;;;;;;19.70;10.00;;;;;;;22.76;48.49;99516.14;105578;1283;98180;-69
2022/05/07 10:51:37;;;;;;;22.10;11.20;;;;;;;22.53;48.12;99520.06;105403;1283;108421;-68
2022/05/07 10:54:18;;;;;;;16.70;8.70;;;;;;;22.27;47.71;99512.61;105427;1283;96610;-68
2022/05/07 10:56:50;;;;;;;20.30;9.30;;;;;;;22.09;47.81;99510.76;105488;1283;96356;-73
2022/05/07 10:59:20;;;;;;;19.50;9.70;;;;;;;22.06;48.07;99508.67;106210;1283;111080;-72
2022/05/07 11:01:49;;;;;;;19.80;9.30;;;;;;;22.06;47.92;99507.89;105591;1283;97938;-73
2022/05/07 11:04:22;;;;;;;16.70;9.00;;;;;;;22.08;47.81;99505.81;105353;1283;107802;-72
2022/05/07 11:06:51;;;;;;;;;;;;;;;22.12;47.78;99504.02;105430;1283;98208;-74
2022/05/07 11:09:26;;;;;;;18.40;8.30;;;;;;;22.14;47.70;99503.73;106877;1281;95852;-68
2022/05/07 11:11:57;;;;;;;15.40;8.20;;;;;;;22.20;47.48;99500.59;107009;1282;111561;-68
2022/05/07 11:14:30;;;;;;;15.00;7.10;;;;;;;22.13;47.04;99495.67;105518;1283;97927;-68
2022/05/07 11:17:03;;;;;;;15.10;6.80;;;;;;;22.08;46.82;99494.17;105647;1283;108425;-67
2022/05/07 11:19:37;;;;;;;12.90;6.90;;;;;;;22.06;46.95;99491.30;105543;1284;98063;-69
2022/05/07 11:22:11;;;;;;;12.50;6.10;;;;;;;22.03;46.83;99490.20;105518;1283;97966;-69
2022/05/07 11:24:42;;;;;;;16.90;6.60;;;;;;;22.00;46.77;99490.86;105406;1283;110474;-68
2022/05/07 11:27:12;;;;;;;15.30;6.80;;;;;;;21.97;46.88;99488.75;105640;1283;96299;-69
2022/05/07 11:29:42;;;;;;;14.90;6.90;;;;;;;21.95;46.80;99483.36;105493;1283;108905;-68
2022/05/07 11:32:12;;;;;;;21.40;8.20;;;;;;;21.89;46.71;99483.29;105441;1284;97995;-70
2022/05/07 11:34:44;;;;;;;15.60;6.40;;;;;;;21.77;46.62;99475.96;105501;1282;95639;-69
2022/05/07 11:37:22;;;;;;;15.40;6.10;;;;;;;21.70;46.50;99466.83;105539;1283;112032;-68
2022/05/07 11:39:59;;;;;;;13.70;6.50;;;;;;;21.71;46.37;99461.86;105595;1281;97997;-67
2022/05/07 11:42:46;;;;;;;16.40;6.80;;;;;;;21.77;46.47;99461.08;105482;1283;108213;-66
2022/05/07 11:45:29;;;;;;;14.20;6.70;;;;;;;21.83;46.16;99457.54;105263;1283;98003;-67
2022/05/07 11:48:05;;;;;;;14.80;6.20;;;;;;;21.84;45.89;99453.72;105573;1283;97863;-68
2022/05/07 11:50:41;;;;;;;15.60;6.50;;;;;;;21.84;46.04;99452.37;105409;1282;111504;-69